Cactus Peak, Santa Catalina Island Weather observations

Data are for 10 minute period ending at time listed.
 Day   Time   Solar   Ave.   Ave.  Ave.  Vector    Max.   Stn.    Total
  of    of     Rad.   Air    Rel.  Wind   Wind     Wind   Baro.  Precip.
Year   Day            Temp.  Hum.  Speed  Dir.     Gust   Pres.         
2016   (PST)   W/m2    F      %     mph   deg.      mph    mb.     in.  
------------------------------------------------------------------------
 122    3:10    0.0    52   84.3     9    154.6    11.3    999.0   0.00  
 122    3:20    0.0    52   92.2     7    159.3    10.8    999.0   0.00  
 122    3:30    0.0    51   95.6     7    159.9     9.6    999.0   0.00  
 122    3:40    0.0    51   96.2     6    157.6     9.6    999.0   0.00  
 122    3:50    0.0    51   96.6     6    156.7     9.0    999.0   0.00  
 122    4:00    0.0    51   96.8     6    153.0     9.0    999.0   0.00  
 122    4:10    0.0    50   96.7     8    141.1    11.3    999.0   0.00  
 122    4:20    0.0    51   96.6     7    151.9    10.8    999.0   0.00  
 122    4:30    0.0    51   96.4     8    146.3    10.8    999.0   0.00  
 122    4:40    0.0    51   96.2     7    145.6    10.8    999.0   0.00  
 122    4:50    0.0    51   96.1    10    127.3    11.9    999.0   0.00  
 122    5:00    0.0    51   96.1     8    141.7    10.2    999.0   0.00  
 122    5:10    2.0    51   94.1     9    120.7    14.3    999.0   0.00  
 122    5:20    8.0    52   95.0    11    127.3    13.1    999.0   0.00  
 122    5:30   20.0    52   95.9    11    135.3    13.1    999.0   0.00  
 122    5:40   32.0    52   96.2    11    144.2    14.9    999.0   0.00  
 122    5:50   39.0    51   96.5    10    143.3    14.3    999.0   0.00  
 122    6:00   46.0    52   96.8    11    145.5    15.5    999.0   0.00  
 122    6:10   57.0    52   97.1    11    159.1    15.5    999.0   0.00  
 122    6:20   78.0    52   97.2    12    150.8    16.7    999.0   0.00  
 122    6:30  121.0    52   97.3    10    160.0    14.3    999.0   0.00  
 122    6:40  129.0    52   97.3     9    161.0    13.1    999.0   0.00  
 122    6:50  135.0    52   97.1     7    155.6    11.3    999.0   0.00  
 122    7:00  197.0    53   96.8     5    151.9     9.6    999.0   0.00  
 122    7:10  180.0    53   96.3     5    143.7     9.6    999.0   0.00  
 122    7:20  210.0    53   95.5     7    143.0    11.9    999.0   0.00  
 122    7:30  241.0    54   94.6     7    162.8    11.9    999.0   0.00  
 122    7:40  202.0    54   94.0     6    157.6    10.2    999.0   0.00  
 122    7:50  176.0    54   94.3     6    156.6     9.6    999.0   0.00  
 122    8:00  300.0    54   93.7     6    153.8    10.2    999.0   0.00  
 122    8:10  360.0    54   91.5     8    160.1    11.3    999.0   0.00  
 122    8:20  450.0    55   90.7     8    158.4    11.9    999.0   0.00  
 122    8:30  432.0    55   91.6     6    177.7     9.6    999.0   0.00  
 122    8:40  544.0    54   92.2     6    164.3    10.2    999.0   0.00  
 122    8:50  595.0    55   92.4     7    173.7    11.3    999.0   0.00  
 122    9:00  270.0    55   91.0     4    185.9     8.4    999.0   0.00  
 122    9:10  261.0    55   91.1     6    179.3     8.4    999.0   0.00  
 122    9:20  379.0    56   91.3     3    196.2     5.4    999.0   0.00  
 122    9:30  604.0    57   87.2     4    163.3     7.2    999.0   0.00  
 122    9:40  715.0    58   85.5     5    179.0     9.0    999.0   0.00  
 122    9:50  708.0    57   86.3     7    171.2    10.8    999.0   0.00  
 122   10:00  844.0    58   85.9     8    170.9    12.5    999.0   0.00  
 122   10:10  854.0    58   85.2     8    170.3    11.9    999.0   0.00  
 122   10:20  896.0    57   86.5     9    170.3    15.5    999.0   0.00  
 122   10:30  871.0    56   87.9     9    168.4    14.3    999.0   0.00  
 122   10:40  883.0    57   87.3     9    170.0    13.1    999.0   0.00  
 122   10:50  895.0    57   85.6     9    177.0    12.5    999.0   0.00  
 122   11:00  913.0    56   87.5     9    172.2    14.9    999.0   0.00  
 122   11:10  813.0    56   88.4    12    173.4    19.1    999.0   0.00  
 122   11:20  685.0    55   89.5    13    174.3    19.1    999.0   0.00  
 122   11:30  640.0    55   89.5    12    175.3    16.1    999.0   0.00  
 122   11:40  487.0    54   90.7    12    172.6    16.7    999.0   0.00  
 122   11:50  520.0    54   91.7    11    172.8    16.1    999.0   0.00  
 122   12:00  439.0    54   91.8    11    173.0    16.1    999.0   0.00  
 122   12:10  672.0    55   91.7     9    176.6    13.7    999.0   0.00  
 122   12:20  793.0    56   89.1     7    161.4    12.5    999.0   0.00  
 122   12:30  904.0    57   86.4     9    176.0    14.9    999.0   0.00  
 122   12:40  964.0    57   86.2    11    174.5    15.5    999.0   0.00  
 122   12:50  925.0    58   83.7     8    167.3    12.5    999.0   0.00  
 122   13:00  914.0    59   80.7     9    172.3    14.3    999.0   0.00  
 122   13:10  905.0    57   83.9    10    176.4    17.3    999.0   0.00  
 122   13:20  893.0    58   82.2     9    173.2    13.7    999.0   0.00  
 122   13:30  880.0    59   80.4     9    169.6    13.1    999.0   0.00  
 122   13:40  863.0    58   81.8     9    178.3    13.1    999.0   0.00  
 122   13:50  848.0    58   83.0    10    182.8    13.7    999.0   0.00  
 122   14:00  829.0    58   83.7    11    177.9    17.3    999.0   0.00  
 122   14:10  812.0    57   84.7    12    174.1    17.3    999.0   0.00  
 122   14:20  799.0    57   84.8    13    183.0    19.1    999.0   0.00  
 122   14:30  713.0    55   87.2    14    177.0    20.9    999.0   0.00  
 122   14:40  605.0    56   86.7    13    178.5    19.1    999.0   0.00  
 122   14:50  628.0    55   88.2    12    174.3    16.7    999.0   0.00  
 122   15:00  545.0    55   87.7    12    175.4    17.3    999.0   0.00  
 122   15:10  477.0    55   87.9    13    176.9    19.1    999.0   0.00  
 122   15:20  575.0    55   88.6    12    181.5    17.3    999.0   0.00  
 122   15:30  525.0    55   88.5    11    175.4    16.1    999.0   0.00  
 122   15:40  446.0    55   87.1    12    180.9    16.1    999.0   0.00  
 122   15:50  544.0    56   86.2    12    175.5    16.1    999.0   0.00  
 122   16:00  520.0    56   85.2    10    188.1    14.3    999.0   0.00  
 122   16:10  472.0    55   86.9    10    186.2    14.9    999.0   0.00  
 122   16:20  412.0    55   87.2    10    196.1    14.3    999.0   0.00  
 122   16:30  255.0    54   88.5    10    200.1    14.9    999.0   0.00  
 122   16:40  338.0    54   88.9     9    207.3    11.9    999.0   0.00  
 122   16:50  325.0    55   87.4     8    201.1    12.5    999.0   0.00  
 122   17:00  307.0    55   87.3     7    232.5     9.0    999.0   0.00  
 122   17:10  251.0    56   85.0     5    268.5     8.4    999.0   0.00  
 122   17:20  245.0    57   83.2     6    324.7     7.8    999.0   0.00  
 122   17:30  209.0    58   82.0     3    319.2     5.4    999.0   0.00  
 122   17:40  175.0    59   78.8     2    318.8     4.8    999.0   0.00  
 122   17:50  140.0    58   79.9     4    351.8     6.6    999.0   0.00  
 122   18:00  109.0    56   84.0     5    337.9     7.2    999.0   0.00  
 122   18:10   76.0    56   84.4     5    329.1     7.2    999.0   0.00  
 122   18:20   47.0    55   86.5     4    321.2     7.2    999.0   0.00  
 122   18:30   26.0    55   86.6     2    298.7     3.0    999.0   0.00  
 122   18:40   10.0    54   87.3     2    289.4     2.4    999.0   0.00  
 122   18:50    4.0    53   88.8     2    214.8     6.0    999.0   0.00  
 122   19:00    3.0    52   92.0     5    221.1     9.0    999.0   0.00  
 122   19:10    0.0    52   94.0     6    226.2     9.0    999.0   0.00  
 122   19:20    0.0    52   94.8     6    220.6     8.4    999.0   0.00  
 122   19:30    0.0    52   95.2     5    226.8     7.8    999.0   0.00  
 122   19:40    0.0    52   95.5     5    248.8     7.2    999.0   0.00  
 122   19:50    0.0    51   95.7     4    298.8     6.0    999.0   0.00  
 122   20:00    0.0    51   95.8     4    280.5     5.4    999.0   0.00  
 122   20:10    0.0    51   95.9     5    297.3     6.6    999.0   0.00  
 122   20:20    0.0    51   96.1     4    312.5     6.0    999.0   0.00  
 122   20:30    0.0    51   96.2     5    337.5     6.6    999.0   0.00  
 122   20:40    0.0    51   96.3     4    330.5     6.0    999.0   0.00  
 122   20:50    0.0    51   96.4     4    336.4     6.0    999.0   0.00  
 122   21:00    0.0    51   96.5     6    339.8     8.4    999.0   0.00  
 122   21:10    0.0    51   96.6     5    345.8     7.2    999.0   0.00  
 122   21:20    0.0    51   96.7     4    357.1     5.4    999.0   0.00  
 122   21:30    0.0    51   96.8     3    337.4     5.4    999.0   0.00  
 122   21:40    0.0    51   96.9     3    344.0     4.2    999.0   0.00  
 122   21:50    0.0    51   97.0     4    335.7     5.4    999.0   0.00  
 122   22:00    0.0    51   97.0     3    354.1     4.2    999.0   0.00  
 122   22:10    0.0    51   97.1     2      6.5     4.2    999.0   0.00  
 122   22:20    0.0    50   97.2     4     12.0     5.4    999.0   0.00  
 122   22:30    0.0    51   97.3     4     23.4     6.0    999.0   0.00  
 122   22:40    0.0    51   97.4     5     11.1     7.2    999.0   0.00  
 122   22:50    0.0    52   97.5     5     24.2     6.0    999.0   0.00  
 122   23:00    0.0    52   97.6     5     35.4     6.6    999.0   0.00  
 122   23:10    0.0    52   97.6     7     19.8     9.6    999.0   0.00  
 122   23:20    0.0    52   97.7     8     17.5    10.2    999.0   0.00  
 122   23:30    0.0    52   97.7     8     18.4     9.6    999.0   0.00  
 122   23:40    0.0    52   97.8     7     26.2     9.0    999.0   0.00  
 122   23:50    0.0    52   97.8     7     35.5     9.6    999.0   0.00  
 123    0:00    0.0    52   97.8     4     57.0     6.0    999.0   0.00  
 123    0:10    0.0    52   97.8     4     91.0     6.6    999.0   0.00  
 123    0:20    0.0    52   97.8     3     84.8     5.4    999.0   0.00  
 123    0:30    0.0    52   97.8     4     67.1     6.0    999.0   0.00  
 123    0:40    0.0    52   97.7     2     77.8     4.8    999.0   0.00  
 123    0:50    0.0    52   97.7     3     61.3     5.4    999.0   0.00  
 123    1:00    0.0    52   97.7     4     65.9     5.4    999.0   0.00  
 123    1:10    0.0    52   97.6     4     74.7     6.0    999.0   0.00  
 123    1:20    0.0    52   97.5     2     55.3     5.4    999.0   0.00  
 123    1:30    0.0    52   97.4     3     26.3     4.8    999.0   0.00  
 123    1:40    0.0    52   97.3     3     17.0     4.8    999.0   0.00  
 123    1:50    0.0    52   97.2     4      4.8     5.4    999.0   0.00  
 123    2:00    0.0    52   97.2     2    345.5     3.6    999.0   0.00  
 123    2:10    0.0    52   97.2     2    357.1     3.0    999.0   0.00  
 123    2:20    0.0    52   97.2     3    343.0     4.2    999.0   0.00  
 123    2:30    0.0    52   97.2     3    337.6     3.6    999.0   0.00  
 123    2:40    0.0    52   97.2     4    347.5     5.4    999.0   0.00  
 123    2:50    0.0    52   97.2     4    351.1     6.0    999.0   0.00  
 123    3:00    0.0    52   97.2     5    358.5     6.6    999.0   0.00  

Return to Cactus Peak graphs page.


Western Regional Climate Center,wrcc@dri.edu